Oakridge, Oregon
Current Conditions -  °F | °C
As of 1:54 PM on Tuesday 25 Nov 2014 (Local Time) from KEUG Reporting Station
Overcast Overcast  
Wind Chill: 61°   Ceiling: 5500
Heat Index: 61°   Visibility: 10mi
Dew Point: 54°   Wind: 14mph
Humidity: 78%   Direction: 190°S
Pressure: 30.39"   Gusts: NA
Location:  43.75°N, 122.46°W
Report Text: KEUG 252154Z 19012KT 10SM FEW024 SCT031 OVC055 16/12 A3039 RMK AO2 SLP289 T01610122
Loading
Personal Weather Stations






























Interactive Weather Map New forecast layout! Learn more

10-Day Weather Forecast

Advertisements
Track Severe Weather on mobile